Time;durP1;ratioP1;P1;durP2;ratioP2;P2;SDS_P1;SDS_P2;PMS_P1;PMS_P2;Temp;Humidity;BMP_temperature;BMP_pressure;BME280_temperature;BME280_humidity;BME280_pressure;Samples;Min_cycle;Max_cycle;Signal;HPM_P1;HPM_P2
2022/12/10 00:00:53;;;;;;;40.95;16.83;;;-0.40;99.90;;;;;;5041821;28;20037;-47
2022/12/10 00:03:19;;;;;;;37.83;17.10;;;-0.40;99.90;;;;;;5043822;28;20036;-48
2022/12/10 00:05:45;;;;;;;42.05;16.42;;;-0.40;99.90;;;;;;5056803;28;20035;-50
2022/12/10 00:08:10;;;;;;;46.05;18.42;;;-0.40;99.90;;;;;;5062630;28;20084;-51
2022/12/10 00:10:40;;;;;;;41.30;16.83;;;-0.40;99.90;;;;;;5062774;28;20097;-50
2022/12/10 00:13:05;;;;;;;41.05;16.60;;;-0.40;99.90;;;;;;5063077;28;20532;-49
2022/12/10 00:15:35;;;;;;;39.65;16.75;;;-0.40;99.90;;;;;;5063307;28;20110;-49
2022/12/10 00:18:00;;;;;;;37.67;16.38;;;-0.40;99.90;;;;;;5062326;28;20024;-51
2022/12/10 00:20:26;;;;;;;39.90;16.58;;;-0.40;99.90;;;;;;5063059;28;21010;-51
2022/12/10 00:22:53;;;;;;;41.85;16.50;;;-0.40;99.90;;;;;;5067126;28;20972;-51
2022/12/10 00:25:19;;;;;;;45.60;18.70;;;-0.40;99.90;;;;;;5068616;28;21030;-51
2022/12/10 00:27:44;;;;;;;45.95;18.05;;;-0.40;99.90;;;;;;5067743;28;20257;-47
2022/12/10 00:30:10;;;;;;;45.90;18.13;;;-0.30;99.90;;;;;;5067147;28;20056;-48
2022/12/10 00:32:36;;;;;;;45.00;18.02;;;-0.30;99.90;;;;;;5067583;28;20503;-47
2022/12/10 00:35:01;;;;;;;44.65;18.35;;;-0.30;99.90;;;;;;5067684;28;20273;-47
2022/12/10 00:37:27;;;;;;;48.80;18.85;;;-0.30;99.90;;;;;;5067634;28;20556;-47
2022/12/10 00:39:52;;;;;;;45.30;18.55;;;-0.30;99.90;;;;;;5067199;28;21365;-47
2022/12/10 00:42:18;;;;;;;42.28;18.23;;;-0.30;99.90;;;;;;5068168;28;20032;-47
2022/12/10 00:44:43;;;;;;;53.83;21.70;;;-0.30;99.90;;;;;;5067636;28;20336;-48
2022/12/10 00:47:09;;;;;;;42.53;18.30;;;-0.30;99.90;;;;;;5067962;28;20033;-47
2022/12/10 00:49:34;;;;;;;50.47;20.05;;;-0.20;99.90;;;;;;5067068;28;20056;-47
2022/12/10 00:51:59;;;;;;;43.70;18.13;;;-0.20;99.90;;;;;;5067768;28;20032;-47
2022/12/10 00:54:25;;;;;;;48.00;17.92;;;-0.30;99.90;;;;;;5067811;28;20028;-47
2022/12/10 00:56:50;;;;;;;53.58;20.75;;;-0.20;99.90;;;;;;5067667;28;20414;-47
2022/12/10 00:59:16;;;;;;;58.25;21.55;;;-0.20;99.90;;;;;;5065758;28;20029;-47
2022/12/10 01:01:42;;;;;;;49.88;20.15;;;-0.30;99.90;;;;;;5067562;28;20080;-47
2022/12/10 01:04:10;;;;;;;50.25;20.70;;;-0.30;99.90;;;;;;5066901;28;20032;-50
2022/12/10 01:06:44;;;;;;;50.80;20.42;;;-0.30;99.90;;;;;;5066947;28;20492;-48
2022/12/10 01:09:13;;;;;;;50.42;19.58;;;-0.30;99.90;;;;;;5067132;28;20043;-48
2022/12/10 01:11:40;;;;;;;49.13;20.02;;;-0.30;99.90;;;;;;5065782;28;20021;-49
2022/12/10 01:14:08;;;;;;;42.17;18.73;;;-0.30;99.90;;;;;;5065961;28;20027;-47
2022/12/10 01:16:34;;;;;;;55.25;22.45;;;-0.20;99.90;;;;;;5063531;28;20035;-48
2022/12/10 01:18:59;;;;;;;52.88;20.42;;;-0.20;99.90;;;;;;5070992;28;20024;-47
2022/12/10 01:21:27;;;;;;;52.90;21.35;;;-0.20;99.90;;;;;;5070509;28;20028;-51
2022/12/10 01:23:53;;;;;;;46.33;19.23;;;-0.30;99.90;;;;;;5070388;28;20699;-47
2022/12/10 01:26:24;;;;;;;52.13;21.55;;;-0.30;99.90;;;;;;5070448;28;20101;-48
2022/12/10 01:28:51;;;;;;;50.47;20.48;;;-0.20;99.90;;;;;;5064172;28;20039;-48
2022/12/10 01:31:20;;;;;;;53.67;22.17;;;-0.20;99.90;;;;;;5057284;28;20021;-48
2022/12/10 01:33:46;;;;;;;53.05;21.35;;;-0.20;99.90;;;;;;5059379;28;20528;-49
2022/12/10 01:36:18;;;;;;;51.67;21.30;;;-0.20;99.90;;;;;;5056315;28;20047;-47
2022/12/10 01:38:44;;;;;;;47.65;20.40;;;-0.10;99.90;;;;;;5049310;28;20547;-50
2022/12/10 01:41:15;;;;;;;55.65;21.55;;;-0.10;99.90;;;;;;5051810;28;20028;-49
2022/12/10 01:43:58;;;;;;;49.83;21.92;;;-0.10;99.90;;;;;;5049472;28;20541;-48
2022/12/10 01:46:29;;;;;;;51.28;21.48;;;-0.10;99.90;;;;;;5041262;28;20115;-48
2022/12/10 01:48:56;;;;;;;51.22;21.52;;;-0.10;99.90;;;;;;5042740;28;20392;-51
2022/12/10 01:51:24;;;;;;;53.70;23.23;;;-0.10;99.90;;;;;;5042580;28;20039;-48
2022/12/10 01:53:50;;;;;;;54.75;22.33;;;0.00;99.90;;;;;;5046536;28;20055;-48
2022/12/10 01:56:18;;;;;;;58.70;21.50;;;0.00;99.90;;;;;;5042574;28;20107;-54
2022/12/10 01:58:45;;;;;;;57.20;23.27;;;0.00;99.90;;;;;;5051446;28;20497;-47
2022/12/10 02:01:31;;;;;;;48.65;21.63;;;-0.10;99.90;;;;;;5050534;28;20020;-48
2022/12/10 02:04:06;;;;;;;50.55;22.13;;;0.00;99.90;;;;;;5041517;28;20028;-47
2022/12/10 02:06:41;;;;;;;56.03;22.40;;;-0.10;99.90;;;;;;5048717;28;20497;-49
2022/12/10 02:09:11;;;;;;;54.50;22.85;;;0.00;99.90;;;;;;5053018;28;20553;-49
2022/12/10 02:11:40;;;;;;;;;;;-0.10;99.90;;;;;;5054874;28;20119;-47
2022/12/10 02:14:33;;;;;;;59.28;24.45;;;-0.10;99.90;;;;;;5054400;28;19912;-49
2022/12/10 02:17:05;;;;;;;56.05;23.13;;;0.00;99.90;;;;;;5059723;28;20048;-47
2022/12/10 02:20:06;;;;;;;52.67;21.75;;;0.00;99.90;;;;;;5060414;28;20101;-50
2022/12/10 02:22:41;;;;;;;55.20;23.90;;;0.00;99.90;;;;;;5058639;28;20041;-51
2022/12/10 02:25:10;;;;;;;52.47;22.23;;;0.00;99.90;;;;;;5062109;28;20082;-49
2022/12/10 02:28:18;;;;;;;58.03;23.73;;;0.00;99.90;;;;;;5061595;28;20036;-47
2022/12/10 02:30:45;;;;;;;59.75;23.55;;;0.10;99.90;;;;;;5036242;28;20024;-51
2022/12/10 02:33:13;;;;;;;64.15;26.55;;;0.00;99.90;;;;;;5065095;28;20024;-50
2022/12/10 02:35:41;;;;;;;53.13;23.58;;;0.00;99.90;;;;;;5064517;28;20027;-51
2022/12/10 02:38:15;;;;;;;59.38;26.55;;;0.00;99.90;;;;;;5063715;28;20024;-51
2022/12/10 02:40:46;;;;;;;55.60;23.27;;;0.00;99.90;;;;;;5063077;28;20032;-48
2022/12/10 02:43:13;;;;;;;55.05;24.40;;;-0.10;99.90;;;;;;5061917;28;20174;-50
2022/12/10 02:45:40;;;;;;;59.67;25.33;;;-0.10;99.90;;;;;;5057517;28;20028;-49
2022/12/10 02:48:06;;;;;;;60.55;25.35;;;-0.10;99.90;;;;;;5055891;28;20029;-47
2022/12/10 02:50:32;;;;;;;56.08;24.98;;;0.00;99.90;;;;;;5056607;28;20024;-48
2022/12/10 02:52:57;;;;;;;55.15;24.58;;;0.00;99.90;;;;;;5054182;28;20020;-47
2022/12/10 02:55:23;;;;;;;52.80;21.85;;;0.00;99.90;;;;;;5052599;28;20630;-50
2022/12/10 02:57:49;;;;;;;57.85;24.73;;;0.00;99.90;;;;;;5052800;28;20021;-51
2022/12/10 03:00:20;;;;;;;57.25;24.15;;;0.00;99.90;;;;;;5051337;28;20077;-50
2022/12/10 03:02:51;;;;;;;56.75;23.88;;;0.00;99.90;;;;;;5057061;28;20508;-47
2022/12/10 03:05:27;;;;;;;50.67;23.40;;;0.00;99.90;;;;;;5060543;28;20447;-49
2022/12/10 03:08:16;;;;;;;50.25;22.02;;;0.00;99.90;;;;;;5061371;28;20031;-51
2022/12/10 03:10:45;;;;;;;64.45;26.10;;;0.00;99.90;;;;;;5059204;28;20085;-51
2022/12/10 03:13:14;;;;;;;54.85;22.95;;;0.00;99.90;;;;;;5062190;28;20434;-51
2022/12/10 03:15:42;;;;;;;55.88;25.10;;;0.00;99.90;;;;;;5068948;28;20502;-50
2022/12/10 03:18:10;;;;;;;56.83;24.60;;;0.00;99.90;;;;;;5068823;28;20032;-51
2022/12/10 03:20:43;;;;;;;59.25;23.30;;;0.00;99.90;;;;;;5068269;28;20051;-50
2022/12/10 03:23:13;;;;;;;56.90;25.27;;;-0.10;99.90;;;;;;5066440;28;20297;-51
2022/12/10 03:25:39;;;;;;;60.75;24.42;;;0.00;99.90;;;;;;5062440;28;20028;-50
2022/12/10 03:28:06;;;;;;;57.22;23.92;;;0.00;99.90;;;;;;5058492;28;20040;-48
2022/12/10 03:30:33;;;;;;;58.42;24.27;;;0.00;99.90;;;;;;5060323;28;20029;-47
2022/12/10 03:32:59;;;;;;;58.40;26.48;;;0.00;99.90;;;;;;5054643;28;20029;-47
2022/12/10 03:35:25;;;;;;;60.83;25.30;;;0.00;99.90;;;;;;5052848;28;20040;-48
2022/12/10 03:37:51;;;;;;;65.97;25.58;;;0.00;99.90;;;;;;5052963;28;20062;-47
2022/12/10 03:40:21;;;;;;;72.35;27.35;;;0.00;99.90;;;;;;5050600;28;20419;-47
2022/12/10 03:42:46;;;;;;;63.45;26.80;;;-0.10;99.90;;;;;;5050918;28;20178;-48
2022/12/10 03:45:12;;;;;;;66.65;25.25;;;-0.10;99.90;;;;;;5047374;28;20522;-47
2022/12/10 03:47:37;;;;;;;62.38;25.58;;;-0.10;99.90;;;;;;5046489;28;20025;-47
2022/12/10 03:50:03;;;;;;;70.40;26.48;;;0.00;99.90;;;;;;5048305;28;20040;-47
2022/12/10 03:52:29;;;;;;;66.32;24.50;;;-0.10;99.90;;;;;;5047340;28;20931;-48
2022/12/10 03:54:54;;;;;;;64.15;25.17;;;-0.10;99.90;;;;;;5056838;28;20077;-46
2022/12/10 03:57:20;;;;;;;65.72;25.55;;;-0.10;99.90;;;;;;5056470;28;20146;-47
2022/12/10 03:59:45;;;;;;;65.03;24.45;;;-0.10;99.90;;;;;;5052346;28;20028;-48
2022/12/10 04:02:11;;;;;;;66.50;25.83;;;-0.10;99.90;;;;;;5052889;28;20447;-51
2022/12/10 04:04:36;;;;;;;70.32;27.67;;;-0.10;99.90;;;;;;5059570;28;20032;-47
2022/12/10 04:07:02;;;;;;;72.57;27.35;;;-0.10;99.90;;;;;;5056078;28;20032;-47
2022/12/10 04:09:28;;;;;;;62.17;25.02;;;-0.10;99.90;;;;;;5057315;28;20032;-48
2022/12/10 04:11:58;;;;;;;62.83;24.55;;;-0.10;99.90;;;;;;5053827;28;20069;-47
2022/12/10 04:17:08;;;;;;;71.47;27.73;;;-0.10;99.90;;;;;;5048896;28;20073;-46
2022/12/10 04:19:34;;;;;;;63.53;25.85;;;-0.10;99.90;;;;;;5046225;28;21287;-47
2022/12/10 04:27:30;;;;;;;63.90;24.98;;;-0.10;99.90;;;;;;5050517;28;20044;-46
2022/12/10 04:29:57;;;;;;;57.03;24.73;;;-0.10;99.90;;;;;;5058331;28;20142;-47
2022/12/10 04:32:25;;;;;;;65.00;24.63;;;-0.10;99.90;;;;;;5057319;28;20020;-46
2022/12/10 04:34:51;;;;;;;74.22;26.58;;;-0.10;99.90;;;;;;5051756;28;20078;-46
2022/12/10 04:37:19;;;;;;;74.35;26.50;;;-0.10;99.90;;;;;;5049637;28;20957;-46
2022/12/10 04:39:44;;;;;;;72.53;25.90;;;-0.20;99.90;;;;;;5044567;28;20589;-46
2022/12/10 04:42:10;;;;;;;73.13;26.30;;;-0.20;99.90;;;;;;5043178;28;20032;-46
2022/12/10 04:44:36;;;;;;;73.30;28.80;;;-0.20;99.90;;;;;;5050916;28;20032;-47
2022/12/10 04:47:04;;;;;;;70.63;25.00;;;-0.20;99.90;;;;;;5055054;28;20201;-47
2022/12/10 04:49:29;;;;;;;63.67;24.70;;;-0.20;99.90;;;;;;5061487;28;20029;-47
2022/12/10 04:51:55;;;;;;;66.53;26.65;;;-0.30;99.90;;;;;;5059247;28;20039;-48
2022/12/10 04:54:21;;;;;;;74.00;28.80;;;-0.20;99.90;;;;;;5057787;28;20107;-47
2022/12/10 04:56:47;;;;;;;74.40;29.33;;;-0.30;99.90;;;;;;5057482;28;20035;-49
2022/12/10 04:59:12;;;;;;;75.72;27.75;;;-0.30;99.90;;;;;;5057756;28;20385;-47
2022/12/10 05:01:38;;;;;;;71.25;28.38;;;-0.30;99.90;;;;;;5060072;28;20031;-47
2022/12/10 05:04:07;;;;;;;71.60;26.63;;;-0.40;99.90;;;;;;5063565;28;20065;-47
2022/12/10 05:06:33;;;;;;;76.65;27.75;;;-0.30;99.90;;;;;;5064579;28;20039;-46
2022/12/10 05:08:59;;;;;;;69.32;27.38;;;-0.30;99.90;;;;;;5071182;28;20032;-47
2022/12/10 05:11:26;;;;;;;73.78;26.45;;;-0.30;99.90;;;;;;5069023;28;20748;-47
2022/12/10 05:13:53;;;;;;;67.25;27.25;;;-0.40;99.90;;;;;;5070692;28;20102;-49
2022/12/10 05:16:20;;;;;;;61.85;24.50;;;-0.30;99.90;;;;;;5069138;28;20078;-46
2022/12/10 05:18:46;;;;;;;59.22;24.77;;;-0.30;99.90;;;;;;5070777;28;20032;-48
2022/12/10 05:21:15;;;;;;;58.97;22.58;;;-0.40;99.90;;;;;;5070172;28;20113;-47
2022/12/10 05:23:44;;;;;;;65.07;25.02;;;-0.40;99.90;;;;;;5069724;28;20032;-47
2022/12/10 05:26:15;;;;;;;59.35;23.65;;;-0.40;99.90;;;;;;5070606;28;20494;-47
2022/12/10 05:28:43;;;;;;;58.28;22.55;;;-0.40;99.90;;;;;;5069373;28;20036;-48
2022/12/10 05:31:19;;;;;;;60.97;23.85;;;-0.30;99.90;;;;;;5069309;28;20439;-48
2022/12/10 05:33:44;;;;;;;60.08;24.35;;;-0.30;99.90;;;;;;5059093;28;20024;-47
2022/12/10 05:36:13;;;;;;;56.03;22.77;;;-0.30;99.90;;;;;;5058811;28;20044;-47
2022/12/10 05:38:40;;;;;;;63.00;23.60;;;-0.40;99.90;;;;;;5055345;28;20039;-50
2022/12/10 05:41:08;;;;;;;55.53;22.13;;;-0.30;99.90;;;;;;5059199;28;20028;-47
2022/12/10 05:43:34;;;;;;;51.10;21.98;;;-0.40;99.90;;;;;;5045757;28;20032;-47
2022/12/10 05:46:06;;;;;;;55.40;21.80;;;-0.40;99.90;;;;;;5047057;28;20110;-48
2022/12/10 05:48:33;;;;;;;53.30;22.05;;;-0.40;99.90;;;;;;5046311;28;20058;-47
2022/12/10 05:51:10;;;;;;;54.83;22.35;;;-0.30;99.90;;;;;;5046297;28;20546;-48
2022/12/10 05:53:36;;;;;;;56.72;23.42;;;-0.30;99.90;;;;;;5038293;28;20088;-47
2022/12/10 05:56:08;;;;;;;62.17;23.75;;;-0.40;99.90;;;;;;5042814;28;20681;-47
2022/12/10 05:58:34;;;;;;;50.72;22.00;;;-0.30;99.90;;;;;;5029508;28;20040;-47
2022/12/10 06:01:05;;;;;;;60.10;22.73;;;-0.30;99.90;;;;;;5030632;28;20041;-47
2022/12/10 06:03:30;;;;;;;54.38;21.50;;;-0.40;99.90;;;;;;5034904;28;20469;-48
2022/12/10 06:05:56;;;;;;;52.95;22.27;;;-0.40;99.90;;;;;;5048966;28;20020;-47
2022/12/10 06:08:22;;;;;;;53.28;21.25;;;-0.30;99.90;;;;;;5040212;28;20024;-51
2022/12/10 06:10:48;;;;;;;52.30;21.20;;;-0.30;99.90;;;;;;5036295;28;20032;-48
2022/12/10 06:13:14;;;;;;;54.42;21.42;;;-0.30;99.90;;;;;;5051138;28;20043;-48
2022/12/10 06:15:41;;;;;;;54.05;22.60;;;-0.40;99.90;;;;;;5046310;28;20017;-48
2022/12/10 06:18:07;;;;;;;55.97;22.83;;;-0.30;99.90;;;;;;5041815;28;20027;-48
2022/12/10 06:20:32;;;;;;;50.15;21.55;;;-0.30;99.90;;;;;;5032049;28;20036;-51
2022/12/10 06:22:58;;;;;;;56.13;21.92;;;-0.30;99.90;;;;;;5024321;28;20035;-51
2022/12/10 06:25:27;;;;;;;49.70;21.30;;;-0.30;99.90;;;;;;5022340;28;20047;-50
2022/12/10 06:27:53;;;;;;;50.92;20.17;;;-0.30;99.90;;;;;;5030323;28;20556;-48
2022/12/10 06:30:18;;;;;;;59.17;23.75;;;-0.30;99.90;;;;;;5037517;28;20036;-49
2022/12/10 06:32:44;;;;;;;57.92;23.10;;;-0.30;99.90;;;;;;5037511;28;20028;-50
2022/12/10 06:35:10;;;;;;;57.25;22.88;;;-0.30;99.90;;;;;;5035035;28;20050;-48
2022/12/10 06:37:37;;;;;;;51.47;21.30;;;-0.30;99.90;;;;;;5037977;28;20036;-47
2022/12/10 06:40:03;;;;;;;63.42;26.20;;;-0.30;99.90;;;;;;5045896;28;20112;-47
2022/12/10 06:42:28;;;;;;;61.83;23.08;;;-0.30;99.90;;;;;;5049160;28;20020;-47
2022/12/10 06:44:54;;;;;;;51.97;20.73;;;-0.30;99.90;;;;;;5044921;28;20106;-48
2022/12/10 06:47:20;;;;;;;58.03;23.02;;;-0.30;99.90;;;;;;5047118;28;20548;-48
2022/12/10 06:49:45;;;;;;;57.72;22.52;;;-0.30;99.90;;;;;;5046847;28;20023;-51
2022/12/10 06:52:11;;;;;;;58.78;23.98;;;-0.30;99.90;;;;;;5050266;28;20028;-47
2022/12/10 06:54:37;;;;;;;63.75;23.95;;;-0.30;99.90;;;;;;5057668;28;20032;-47
2022/12/10 06:57:02;;;;;;;59.30;22.55;;;-0.30;99.90;;;;;;5058616;28;20032;-47
2022/12/10 06:59:28;;;;;;;54.78;22.27;;;-0.30;99.90;;;;;;5056427;28;20024;-49
2022/12/10 07:01:54;;;;;;;56.38;23.27;;;-0.20;99.90;;;;;;5058924;28;20033;-49
2022/12/10 07:04:19;;;;;;;65.28;25.77;;;-0.20;99.90;;;;;;5067186;28;20024;-49
2022/12/10 07:06:45;;;;;;;57.95;22.73;;;-0.30;99.90;;;;;;5069943;28;20078;-49
2022/12/10 07:09:11;;;;;;;53.65;22.58;;;-0.30;99.90;;;;;;5069554;28;20108;-52
2022/12/10 07:11:38;;;;;;;54.97;22.05;;;-0.30;99.90;;;;;;5069731;28;20031;-49
2022/12/10 07:14:04;;;;;;;53.47;21.23;;;-0.30;99.90;;;;;;5067761;28;21030;-50
2022/12/10 07:16:31;;;;;;;55.72;22.23;;;-0.30;99.90;;;;;;5066907;28;20036;-50
2022/12/10 07:18:58;;;;;;;58.95;23.08;;;-0.30;99.90;;;;;;5066954;28;20032;-49
2022/12/10 07:21:26;;;;;;;56.30;23.52;;;-0.30;99.90;;;;;;5068329;28;20021;-49
2022/12/10 07:23:53;;;;;;;61.58;25.30;;;-0.30;99.90;;;;;;5068737;28;20054;-47
2022/12/10 07:26:19;;;;;;;60.40;23.58;;;-0.30;99.90;;;;;;5068800;28;20225;-48
2022/12/10 07:28:45;;;;;;;65.90;26.15;;;-0.30;99.90;;;;;;5068525;28;20434;-47
2022/12/10 07:31:11;;;;;;;63.88;25.20;;;-0.30;99.90;;;;;;5068797;28;20555;-49
2022/12/10 07:33:37;;;;;;;71.68;24.92;;;-0.30;99.90;;;;;;5065834;28;20120;-49
2022/12/10 07:36:08;;;;;;;61.13;23.70;;;-0.20;99.90;;;;;;5064604;28;20023;-48
2022/12/10 07:38:34;;;;;;;54.10;22.23;;;-0.30;99.90;;;;;;5064769;28;20032;-49
2022/12/10 07:41:08;;;;;;;60.35;22.13;;;-0.20;99.90;;;;;;5063884;28;20051;-48
2022/12/10 07:43:38;;;;;;;65.35;23.67;;;-0.30;99.90;;;;;;5058884;28;21178;-48
2022/12/10 07:46:10;;;;;;;65.50;25.30;;;-0.20;99.90;;;;;;5058224;28;20051;-48
2022/12/10 07:48:37;;;;;;;67.72;24.20;;;-0.30;99.90;;;;;;5059320;28;20039;-48
2022/12/10 07:51:04;;;;;;;65.45;23.95;;;-0.30;99.90;;;;;;5059732;28;20032;-48
2022/12/10 07:53:29;;;;;;;72.53;24.58;;;-0.20;99.90;;;;;;5059984;28;20024;-48
2022/12/10 07:55:55;;;;;;;67.30;24.20;;;-0.20;99.90;;;;;;5060480;28;20062;-49
2022/12/10 07:58:21;;;;;;;59.70;22.63;;;-0.20;99.90;;;;;;5062053;28;20111;-50
2022/12/10 08:00:47;;;;;;;65.88;24.55;;;-0.20;99.90;;;;;;5066471;28;20990;-49
2022/12/10 08:03:12;;;;;;;57.90;21.42;;;-0.30;99.90;;;;;;5065620;28;20035;-49
2022/12/10 08:05:38;;;;;;;73.25;25.50;;;-0.30;99.90;;;;;;5067405;28;20039;-49
2022/12/10 08:08:04;;;;;;;70.95;23.60;;;-0.30;99.90;;;;;;5067699;28;20115;-49
2022/12/10 08:10:32;;;;;;;71.15;23.77;;;-0.30;99.90;;;;;;5067105;28;20040;-51
2022/12/10 08:12:58;;;;;;;58.20;21.42;;;-0.30;99.90;;;;;;5066603;28;20024;-52
2022/12/10 08:15:24;;;;;;;53.33;21.90;;;-0.30;99.90;;;;;;5067724;28;20097;-50
2022/12/10 08:17:49;;;;;;;62.92;21.77;;;-0.20;99.90;;;;;;5066872;28;20050;-49
2022/12/10 08:20:15;;;;;;;66.97;25.10;;;-0.20;99.90;;;;;;5067104;28;20062;-49
2022/12/10 08:22:40;;;;;;;70.78;25.70;;;-0.10;99.90;;;;;;5061724;28;20040;-48
2022/12/10 08:25:06;;;;;;;68.50;23.75;;;-0.10;99.90;;;;;;5068827;28;20119;-48
2022/12/10 08:27:32;;;;;;;63.45;23.80;;;-0.10;99.90;;;;;;5071268;28;20020;-47
2022/12/10 08:29:58;;;;;;;64.05;23.05;;;-0.10;99.90;;;;;;5070463;28;20040;-48
2022/12/10 08:32:23;;;;;;;59.75;23.50;;;-0.20;99.90;;;;;;5070412;28;20101;-52
2022/12/10 08:34:49;;;;;;;59.20;21.92;;;-0.20;99.90;;;;;;5070712;28;20035;-49
2022/12/10 08:37:14;;;;;;;65.50;23.88;;;-0.20;99.90;;;;;;5070990;28;20432;-48
2022/12/10 08:39:40;;;;;;;66.95;23.60;;;-0.20;99.90;;;;;;5070641;28;20036;-50
2022/12/10 08:42:06;;;;;;;62.00;23.98;;;-0.20;99.90;;;;;;5070807;28;20031;-47
2022/12/10 08:44:31;;;;;;;61.40;23.50;;;-0.10;99.90;;;;;;5071405;28;20040;-47
2022/12/10 08:46:57;;;;;;;58.63;22.50;;;-0.10;99.90;;;;;;5070443;28;20033;-48
2022/12/10 08:49:23;;;;;;;62.85;26.10;;;-0.10;99.90;;;;;;5069119;28;20036;-48
2022/12/10 08:51:48;;;;;;;64.75;24.20;;;-0.20;99.90;;;;;;5071012;28;20047;-51
2022/12/10 08:54:14;;;;;;;65.55;25.08;;;-0.20;99.90;;;;;;5069729;28;20051;-50
2022/12/10 08:56:40;;;;;;;64.78;24.38;;;-0.20;99.90;;;;;;5071168;28;20119;-49
2022/12/10 08:59:06;;;;;;;59.85;24.85;;;-0.20;99.90;;;;;;5070813;28;20067;-48
2022/12/10 09:01:32;;;;;;;60.40;21.65;;;-0.20;99.90;;;;;;5086453;28;20056;-47
2022/12/10 09:03:58;;;;;;;52.33;21.23;;;-0.10;99.90;;;;;;5070047;28;20115;-49
2022/12/10 09:06:24;;;;;;;57.10;22.35;;;0.00;99.90;;;;;;5071055;28;20059;-48
2022/12/10 09:08:50;;;;;;;57.13;22.65;;;0.00;99.90;;;;;;5069920;28;20587;-50
2022/12/10 09:11:28;;;;;;;60.80;22.77;;;-0.10;99.90;;;;;;5077897;28;20028;-49
2022/12/10 09:13:55;;;;;;;49.92;20.08;;;-0.10;99.90;;;;;;5070435;28;20252;-48
2022/12/10 09:16:21;;;;;;;58.30;23.00;;;0.00;99.90;;;;;;5069523;28;20058;-48
2022/12/10 09:18:47;;;;;;;63.10;23.27;;;0.00;99.90;;;;;;5069871;28;20032;-48
2022/12/10 09:21:17;;;;;;;56.92;22.63;;;-0.10;99.90;;;;;;5070228;28;20067;-50
2022/12/10 09:23:43;;;;;;;56.05;22.98;;;0.00;99.90;;;;;;5070893;28;20374;-49
2022/12/10 09:26:12;;;;;;;47.67;20.80;;;0.00;99.90;;;;;;5070767;28;20024;-48
2022/12/10 09:28:38;;;;;;;54.05;22.20;;;0.00;99.90;;;;;;5069054;28;20028;-48
2022/12/10 09:31:05;;;;;;;54.75;22.70;;;0.00;99.90;;;;;;5069559;28;20021;-51
2022/12/10 09:33:31;;;;;;;49.40;19.98;;;0.00;99.90;;;;;;5085612;28;20136;-48
2022/12/10 09:35:57;;;;;;;59.58;20.90;;;0.00;99.90;;;;;;5069788;28;20028;-47
2022/12/10 09:38:22;;;;;;;56.15;21.17;;;0.00;99.90;;;;;;5068680;28;20028;-48
2022/12/10 09:40:59;;;;;;;51.38;20.70;;;0.00;99.90;;;;;;5069986;28;20028;-49
2022/12/10 09:43:46;;;;;;;51.28;20.27;;;0.00;99.90;;;;;;5069639;28;20039;-48
2022/12/10 09:46:23;;;;;;;49.22;19.15;;;0.00;99.90;;;;;;5068630;28;20093;-48
2022/12/10 09:49:14;;;;;;;48.35;20.27;;;0.10;99.90;;;;;;5070078;28;20123;-49
2022/12/10 09:51:39;;;;;;;;;;;0.10;99.90;;;;;;5070462;28;20033;-48
2022/12/10 09:54:26;;;;;;;50.53;19.35;;;0.10;99.90;;;;;;5070097;28;19916;-48
2022/12/10 09:56:57;;;;;;;43.75;18.30;;;0.00;99.90;;;;;;5069839;28;20717;-48
2022/12/10 09:59:46;;;;;;;43.10;16.77;;;0.00;99.90;;;;;;5069476;28;20024;-48
2022/12/10 10:02:28;;;;;;;43.65;16.98;;;0.00;99.90;;;;;;5069622;28;20051;-50
2022/12/10 10:05:05;;;;;;;49.08;20.10;;;0.00;99.90;;;;;;5069106;28;20036;-49
2022/12/10 10:07:32;;;;;;;43.50;17.05;;;0.00;99.90;;;;;;5069956;28;20124;-48
2022/12/10 10:10:03;;;;;;;48.83;18.83;;;-0.10;99.90;;;;;;5068813;28;20047;-49
2022/12/10 10:12:32;;;;;;;48.67;18.38;;;-0.10;99.90;;;;;;5069533;28;20036;-51
2022/12/10 10:14:59;;;;;;;43.55;19.33;;;0.00;99.90;;;;;;5073690;28;20025;-52
2022/12/10 10:17:35;;;;;;;48.63;20.10;;;-0.10;99.90;;;;;;5069700;28;20112;-52
2022/12/10 10:20:01;;;;;;;47.80;19.67;;;-0.10;99.90;;;;;;5068922;28;20081;-48
2022/12/10 10:22:27;;;;;;;50.28;20.40;;;-0.10;99.90;;;;;;5069931;28;20032;-49
2022/12/10 10:24:53;;;;;;;40.92;17.83;;;-0.10;99.90;;;;;;5069580;28;20151;-49
2022/12/10 10:27:22;;;;;;;51.08;21.25;;;-0.10;99.90;;;;;;5069856;28;20043;-49
2022/12/10 10:29:50;;;;;;;53.58;21.50;;;-0.20;99.90;;;;;;5068792;28;20021;-48
2022/12/10 10:32:22;;;;;;;48.28;21.33;;;-0.10;99.90;;;;;;5069737;28;20115;-49
2022/12/10 10:34:57;;;;;;;40.83;19.23;;;-0.10;99.90;;;;;;5069308;28;20048;-48
2022/12/10 10:37:28;;;;;;;47.53;19.98;;;-0.10;99.90;;;;;;5069156;28;20082;-48
2022/12/10 10:39:54;;;;;;;45.45;20.85;;;0.00;99.90;;;;;;5069023;28;20283;-48
2022/12/10 10:42:40;;;;;;;41.60;20.02;;;0.00;99.90;;;;;;5069052;28;20119;-49
2022/12/10 10:45:38;;;;;;;45.00;20.67;;;0.10;99.90;;;;;;5069273;28;20236;-49
2022/12/10 10:48:14;;;;;;;46.50;19.25;;;0.10;99.90;;;;;;5043250;28;20055;-48
2022/12/10 10:50:48;;;;;;;39.03;17.15;;;0.10;99.90;;;;;;5068752;28;20031;-48
2022/12/10 10:53:31;;;;;;;42.63;18.27;;;0.00;99.90;;;;;;5069246;28;20417;-48
2022/12/10 10:56:20;;;;;;;41.45;18.13;;;0.00;99.90;;;;;;5069302;28;20076;-48
2022/12/10 10:58:52;;;;;;;35.08;16.45;;;0.00;99.90;;;;;;5068761;28;20472;-48
2022/12/10 11:01:18;;;;;;;34.90;16.63;;;-0.10;99.90;;;;;;5067534;28;20039;-51
2022/12/10 11:03:49;;;;;;;34.28;16.48;;;-0.10;99.90;;;;;;5066008;28;20561;-48
2022/12/10 11:06:16;;;;;;;36.28;17.75;;;-0.10;99.90;;;;;;5069071;28;20035;-48
2022/12/10 11:08:44;;;;;;;35.50;15.90;;;-0.10;99.90;;;;;;5067506;28;20031;-48
2022/12/10 11:11:17;;;;;;;30.00;14.95;;;-0.10;99.90;;;;;;5068529;28;20384;-48
2022/12/10 11:13:42;;;;;;;34.00;14.63;;;-0.10;99.90;;;;;;5068534;28;20200;-48
2022/12/10 11:16:24;;;;;;;31.60;15.68;;;-0.10;99.90;;;;;;5067298;28;20066;-48
2022/12/10 11:18:56;;;;;;;32.28;15.40;;;-0.10;99.90;;;;;;5068624;28;20111;-48
2022/12/10 11:21:22;;;;;;;30.90;15.73;;;-0.10;99.90;;;;;;5068116;28;20024;-52
2022/12/10 11:23:52;;;;;;;35.45;18.08;;;-0.10;99.90;;;;;;5067143;28;20055;-51
2022/12/10 11:26:33;;;;;;;40.10;18.20;;;-0.10;99.90;;;;;;5065538;28;20493;-49
2022/12/10 11:29:20;;;;;;;36.83;17.85;;;0.00;99.90;;;;;;5068315;28;20040;-50
2022/12/10 11:32:18;;;;;;;40.63;18.25;;;0.00;99.90;;;;;;5066508;28;20068;-52
2022/12/10 11:34:52;;;;;;;37.28;16.95;;;0.00;99.90;;;;;;5039293;28;20735;-48
2022/12/10 11:37:48;;;;;;;35.80;18.42;;;0.10;99.90;;;;;;5068569;28;20395;-52
2022/12/10 11:40:35;;;;;;;35.53;17.17;;;0.10;99.90;;;;;;5067119;28;20042;-52
2022/12/10 11:43:00;;;;;;;38.83;18.65;;;0.10;99.90;;;;;;5066736;28;20012;-49
2022/12/10 11:45:29;;;;;;;38.10;17.75;;;0.10;99.90;;;;;;5068247;28;20077;-48
2022/12/10 11:48:19;;;;;;;37.17;18.00;;;0.10;99.90;;;;;;5068185;28;20028;-50
2022/12/10 11:51:00;;;;;;;31.73;16.77;;;0.10;99.90;;;;;;5067745;28;20107;-48
2022/12/10 11:54:14;;;;;;;30.80;16.55;;;0.10;99.90;;;;;;5068010;28;20507;-48
2022/12/10 11:56:52;;;;;;;29.50;14.90;;;0.10;99.90;;;;;;5012259;28;20131;-49
2022/12/10 11:59:36;;;;;;;29.10;14.52;;;0.10;99.90;;;;;;5066842;28;20046;-48
2022/12/10 12:02:26;;;;;;;30.85;14.70;;;0.00;99.90;;;;;;5067939;28;20463;-48
2022/12/10 12:05:12;;;;;;;27.08;14.38;;;0.00;99.90;;;;;;5065291;28;20515;-48
2022/12/10 12:08:26;;;;;;;30.25;15.57;;;0.00;99.90;;;;;;5068549;28;20530;-48
2022/12/10 12:11:15;;;;;;;29.08;14.27;;;0.00;99.90;;;;;;5065622;28;20156;-48
2022/12/10 12:14:06;;;;;;;27.25;14.43;;;0.10;99.90;;;;;;5068298;28;20366;-48
2022/12/10 12:16:50;;;;;;;28.67;14.57;;;0.20;99.90;;;;;;5067778;28;20028;-48
2022/12/10 12:19:25;;;;;;;30.55;14.77;;;0.10;99.90;;;;;;5066994;28;20524;-48
2022/12/10 12:21:51;;;;;;;27.65;15.32;;;0.20;99.90;;;;;;5067831;28;20025;-49
2022/12/10 12:24:37;;;;;;;30.90;15.15;;;0.20;99.90;;;;;;5068041;28;20040;-48
2022/12/10 12:27:16;;;;;;;30.23;14.70;;;0.20;99.90;;;;;;5067590;28;20033;-48
2022/12/10 12:29:50;;;;;;;23.85;12.85;;;0.20;99.90;;;;;;5067637;28;20055;-48
2022/12/10 12:32:31;;;;;;;30.70;15.55;;;0.10;99.90;;;;;;5066455;28;20641;-49
2022/12/10 12:35:08;;;;;;;99.28;55.00;;;0.10;99.90;;;;;;5067559;28;20452;-49
2022/12/10 12:37:55;;;;;;;45.78;23.30;;;0.10;99.90;;;;;;5068014;28;20030;-49
2022/12/10 12:40:40;;;;;;;20.52;12.35;;;0.10;99.90;;;;;;5066936;28;20036;-48
2022/12/10 12:43:14;;;;;;;25.15;12.77;;;0.20;99.90;;;;;;5066802;28;20123;-48
2022/12/10 12:45:47;;;;;;;19.00;10.23;;;0.10;99.90;;;;;;5066162;28;20025;-48
2022/12/10 12:48:49;;;;;;;21.15;10.55;;;0.10;99.90;;;;;;5066783;28;20027;-49
2022/12/10 12:51:32;;;;;;;21.38;10.82;;;0.10;99.90;;;;;;5066495;28;20176;-47
2022/12/10 12:53:57;;;;;;;26.17;12.27;;;0.10;99.90;;;;;;5067463;28;20397;-47